sensor_id;sensor_type;location;lat;lon;timestamp;P1;durP1;ratioP1;P2;durP2;ratioP2
63959;SDS011;50136;51.374;0.096;2023-06-10T00:00:27;19.25;;;10.00;;
63959;SDS011;50136;51.374;0.096;2023-06-10T00:10:29;25.73;;;10.48;;
63959;SDS011;50136;51.374;0.096;2023-06-10T00:20:33;20.73;;;10.13;;
63959;SDS011;50136;51.374;0.096;2023-06-10T00:30:35;28.73;;;13.30;;
63959;SDS011;50136;51.374;0.096;2023-06-10T00:40:39;20.67;;;9.95;;
63959;SDS011;50136;51.374;0.096;2023-06-10T00:50:42;19.30;;;8.70;;
63959;SDS011;50136;51.374;0.096;2023-06-10T01:00:46;21.13;;;10.63;;
63959;SDS011;50136;51.374;0.096;2023-06-10T01:10:49;29.85;;;11.60;;
63959;SDS011;50136;51.374;0.096;2023-06-10T01:20:56;32.00;;;11.75;;
63959;SDS011;50136;51.374;0.096;2023-06-10T01:31:02;26.38;;;10.70;;
63959;SDS011;50136;51.374;0.096;2023-06-10T01:41:11;22.30;;;10.95;;
63959;SDS011;50136;51.374;0.096;2023-06-10T01:51:15;24.27;;;10.80;;
63959;SDS011;50136;51.374;0.096;2023-06-10T02:01:17;23.98;;;11.80;;
63959;SDS011;50136;51.374;0.096;2023-06-10T02:11:21;27.20;;;13.05;;
63959;SDS011;50136;51.374;0.096;2023-06-10T02:21:23;29.13;;;12.45;;
63959;SDS011;50136;51.374;0.096;2023-06-10T02:31:26;22.83;;;10.85;;
63959;SDS011;50136;51.374;0.096;2023-06-10T02:41:28;28.75;;;12.45;;
63959;SDS011;50136;51.374;0.096;2023-06-10T02:51:32;27.08;;;10.18;;
63959;SDS011;50136;51.374;0.096;2023-06-10T03:01:34;30.98;;;12.35;;
63959;SDS011;50136;51.374;0.096;2023-06-10T03:11:37;24.75;;;11.30;;
63959;SDS011;50136;51.374;0.096;2023-06-10T03:21:39;21.67;;;11.00;;
63959;SDS011;50136;51.374;0.096;2023-06-10T03:31:46;24.40;;;9.98;;
63959;SDS011;50136;51.374;0.096;2023-06-10T03:41:48;31.60;;;10.60;;
63959;SDS011;50136;51.374;0.096;2023-06-10T03:51:51;23.55;;;11.57;;
63959;SDS011;50136;51.374;0.096;2023-06-10T04:01:53;24.38;;;10.73;;
63959;SDS011;50136;51.374;0.096;2023-06-10T04:11:57;23.30;;;12.18;;
63959;SDS011;50136;51.374;0.096;2023-06-10T04:22:00;29.52;;;12.93;;
63959;SDS011;50136;51.374;0.096;2023-06-10T04:32:04;24.15;;;9.57;;
63959;SDS011;50136;51.374;0.096;2023-06-10T04:42:07;19.48;;;9.57;;
63959;SDS011;50136;51.374;0.096;2023-06-10T04:52:10;24.60;;;11.35;;
63959;SDS011;50136;51.374;0.096;2023-06-10T05:02:12;25.27;;;10.43;;
63959;SDS011;50136;51.374;0.096;2023-06-10T05:12:16;17.15;;;9.82;;
63959;SDS011;50136;51.374;0.096;2023-06-10T05:22:18;27.50;;;10.90;;
63959;SDS011;50136;51.374;0.096;2023-06-10T05:32:21;33.70;;;11.43;;
63959;SDS011;50136;51.374;0.096;2023-06-10T05:42:23;23.73;;;10.88;;
63959;SDS011;50136;51.374;0.096;2023-06-10T05:52:26;18.08;;;9.38;;
63959;SDS011;50136;51.374;0.096;2023-06-10T06:02:28;22.42;;;10.07;;
63959;SDS011;50136;51.374;0.096;2023-06-10T06:12:33;26.48;;;10.98;;
63959;SDS011;50136;51.374;0.096;2023-06-10T06:22:35;27.25;;;11.52;;
63959;SDS011;50136;51.374;0.096;2023-06-10T06:32:38;24.23;;;12.93;;
63959;SDS011;50136;51.374;0.096;2023-06-10T06:42:41;32.58;;;13.32;;
63959;SDS011;50136;51.374;0.096;2023-06-10T06:52:44;20.27;;;11.50;;
63959;SDS011;50136;51.374;0.096;2023-06-10T07:02:46;25.30;;;12.15;;
63959;SDS011;50136;51.374;0.096;2023-06-10T07:12:49;28.15;;;13.35;;
63959;SDS011;50136;51.374;0.096;2023-06-10T07:22:51;34.05;;;14.95;;
63959;SDS011;50136;51.374;0.096;2023-06-10T07:32:55;22.88;;;13.00;;
63959;SDS011;50136;51.374;0.096;2023-06-10T07:42:57;23.30;;;15.38;;
63959;SDS011;50136;51.374;0.096;2023-06-10T07:53:00;23.15;;;13.93;;
63959;SDS011;50136;51.374;0.096;2023-06-10T08:03:02;21.67;;;12.20;;
63959;SDS011;50136;51.374;0.096;2023-06-10T08:13:07;20.33;;;10.48;;
63959;SDS011;50136;51.374;0.096;2023-06-10T08:23:09;16.02;;;9.73;;
63959;SDS011;50136;51.374;0.096;2023-06-10T08:33:13;18.30;;;10.95;;
63959;SDS011;50136;51.374;0.096;2023-06-10T08:43:17;24.38;;;12.43;;
63959;SDS011;50136;51.374;0.096;2023-06-10T08:53:32;18.15;;;10.18;;
63959;SDS011;50136;51.374;0.096;2023-06-10T09:03:38;13.77;;;10.15;;
63959;SDS011;50136;51.374;0.096;2023-06-10T09:13:42;14.48;;;10.27;;
63959;SDS011;50136;51.374;0.096;2023-06-10T09:23:44;16.67;;;9.43;;
63959;SDS011;50136;51.374;0.096;2023-06-10T09:33:48;18.70;;;9.60;;
63959;SDS011;50136;51.374;0.096;2023-06-10T09:43:50;12.18;;;9.50;;
63959;SDS011;50136;51.374;0.096;2023-06-10T09:53:54;30.13;;;11.50;;
63959;SDS011;50136;51.374;0.096;2023-06-10T10:03:56;12.98;;;9.32;;
63959;SDS011;50136;51.374;0.096;2023-06-10T10:13:59;10.38;;;8.40;;
63959;SDS011;50136;51.374;0.096;2023-06-10T10:24:05;12.60;;;9.32;;
63959;SDS011;50136;51.374;0.096;2023-06-10T10:34:16;15.88;;;8.70;;
63959;SDS011;50136;51.374;0.096;2023-06-10T10:44:23;10.65;;;7.55;;
63959;SDS011;50136;51.374;0.096;2023-06-10T10:54:30;14.85;;;8.82;;
63959;SDS011;50136;51.374;0.096;2023-06-10T11:04:33;12.80;;;7.82;;
63959;SDS011;50136;51.374;0.096;2023-06-10T11:25:50;15.80;;;9.70;;
63959;SDS011;50136;51.374;0.096;2023-06-10T11:58:11;14.60;;;10.63;;
63959;SDS011;50136;51.374;0.096;2023-06-10T12:08:14;16.60;;;9.68;;
63959;SDS011;50136;51.374;0.096;2023-06-10T12:28:58;17.02;;;10.15;;
63959;SDS011;50136;51.374;0.096;2023-06-10T12:39:04;11.38;;;8.98;;
63959;SDS011;50136;51.374;0.096;2023-06-10T13:10:30;11.88;;;8.55;;
63959;SDS011;50136;51.374;0.096;2023-06-10T13:42:28;11.82;;;9.45;;
63959;SDS011;50136;51.374;0.096;2023-06-10T13:52:36;16.92;;;10.35;;
63959;SDS011;50136;51.374;0.096;2023-06-10T14:02:46;16.25;;;11.25;;
63959;SDS011;50136;51.374;0.096;2023-06-10T14:12:49;14.98;;;9.90;;
63959;SDS011;50136;51.374;0.096;2023-06-10T14:22:52;12.15;;;9.52;;
63959;SDS011;50136;51.374;0.096;2023-06-10T14:32:54;14.68;;;10.70;;
63959;SDS011;50136;51.374;0.096;2023-06-10T14:42:58;16.75;;;11.65;;
63959;SDS011;50136;51.374;0.096;2023-06-10T14:53:00;13.52;;;9.23;;
63959;SDS011;50136;51.374;0.096;2023-06-10T15:03:04;9.82;;;8.82;;
63959;SDS011;50136;51.374;0.096;2023-06-10T15:13:07;12.45;;;9.55;;
63959;SDS011;50136;51.374;0.096;2023-06-10T15:23:10;14.43;;;8.88;;
63959;SDS011;50136;51.374;0.096;2023-06-10T15:33:12;14.20;;;9.25;;
63959;SDS011;50136;51.374;0.096;2023-06-10T15:54:06;10.60;;;9.50;;
63959;SDS011;50136;51.374;0.096;2023-06-10T16:04:09;13.35;;;8.45;;
63959;SDS011;50136;51.374;0.096;2023-06-10T16:14:13;11.68;;;8.70;;
63959;SDS011;50136;51.374;0.096;2023-06-10T16:24:15;12.43;;;8.00;;
63959;SDS011;50136;51.374;0.096;2023-06-10T16:44:40;11.85;;;9.02;;
63959;SDS011;50136;51.374;0.096;2023-06-10T16:54:42;14.73;;;10.40;;
63959;SDS011;50136;51.374;0.096;2023-06-10T17:04:45;10.80;;;8.50;;
63959;SDS011;50136;51.374;0.096;2023-06-10T17:14:47;13.77;;;8.60;;
63959;SDS011;50136;51.374;0.096;2023-06-10T17:24:51;11.32;;;9.45;;
63959;SDS011;50136;51.374;0.096;2023-06-10T17:34:53;13.57;;;10.32;;
63959;SDS011;50136;51.374;0.096;2023-06-10T17:45:07;15.23;;;10.02;;
63959;SDS011;50136;51.374;0.096;2023-06-10T17:55:10;20.00;;;10.65;;
63959;SDS011;50136;51.374;0.096;2023-06-10T18:05:14;12.30;;;8.93;;
63959;SDS011;50136;51.374;0.096;2023-06-10T18:15:25;11.93;;;8.52;;
63959;SDS011;50136;51.374;0.096;2023-06-10T18:25:28;15.05;;;10.07;;
63959;SDS011;50136;51.374;0.096;2023-06-10T18:35:33;18.30;;;10.25;;
63959;SDS011;50136;51.374;0.096;2023-06-10T18:45:39;15.48;;;9.55;;
63959;SDS011;50136;51.374;0.096;2023-06-10T18:55:43;13.32;;;8.55;;
63959;SDS011;50136;51.374;0.096;2023-06-10T19:05:47;12.52;;;9.52;;
63959;SDS011;50136;51.374;0.096;2023-06-10T19:15:49;17.33;;;10.65;;
63959;SDS011;50136;51.374;0.096;2023-06-10T19:25:52;15.35;;;9.75;;
63959;SDS011;50136;51.374;0.096;2023-06-10T19:35:54;12.23;;;8.82;;
63959;SDS011;50136;51.374;0.096;2023-06-10T19:45:58;17.85;;;8.63;;
63959;SDS011;50136;51.374;0.096;2023-06-10T19:56:00;12.23;;;9.57;;
63959;SDS011;50136;51.374;0.096;2023-06-10T20:06:03;20.55;;;9.60;;
63959;SDS011;50136;51.374;0.096;2023-06-10T20:16:05;17.67;;;10.98;;
63959;SDS011;50136;51.374;0.096;2023-06-10T20:26:09;17.95;;;11.82;;
63959;SDS011;50136;51.374;0.096;2023-06-10T20:36:11;15.40;;;8.48;;
63959;SDS011;50136;51.374;0.096;2023-06-10T20:46:14;17.63;;;10.20;;
63959;SDS011;50136;51.374;0.096;2023-06-10T20:56:19;26.20;;;11.23;;
63959;SDS011;50136;51.374;0.096;2023-06-10T21:06:23;19.40;;;10.27;;
63959;SDS011;50136;51.374;0.096;2023-06-10T21:16:25;20.15;;;9.32;;
63959;SDS011;50136;51.374;0.096;2023-06-10T21:26:28;17.38;;;10.27;;
63959;SDS011;50136;51.374;0.096;2023-06-10T21:36:31;16.98;;;9.65;;
63959;SDS011;50136;51.374;0.096;2023-06-10T21:46:34;18.17;;;10.13;;
63959;SDS011;50136;51.374;0.096;2023-06-10T21:56:36;20.88;;;9.50;;
63959;SDS011;50136;51.374;0.096;2023-06-10T22:06:39;20.02;;;9.05;;
63959;SDS011;50136;51.374;0.096;2023-06-10T22:16:42;14.48;;;7.85;;
63959;SDS011;50136;51.374;0.096;2023-06-10T22:26:45;23.10;;;10.32;;
63959;SDS011;50136;51.374;0.096;2023-06-10T22:36:54;26.60;;;11.77;;
63959;SDS011;50136;51.374;0.096;2023-06-10T22:46:57;17.42;;;10.27;;
63959;SDS011;50136;51.374;0.096;2023-06-10T22:56:59;28.60;;;10.45;;
63959;SDS011;50136;51.374;0.096;2023-06-10T23:07:02;19.27;;;10.35;;
63959;SDS011;50136;51.374;0.096;2023-06-10T23:17:05;21.70;;;11.27;;
63959;SDS011;50136;51.374;0.096;2023-06-10T23:27:08;14.80;;;9.30;;
63959;SDS011;50136;51.374;0.096;2023-06-10T23:37:10;14.20;;;9.55;;
63959;SDS011;50136;51.374;0.096;2023-06-10T23:47:14;24.58;;;8.57;;
63959;SDS011;50136;51.374;0.096;2023-06-10T23:57:16;29.77;;;10.32;;
